Time;durP1;ratioP1;P1;durP2;ratioP2;P2;SDS_P1;SDS_P2;PMS_P1;PMS_P2;Temp;Humidity;BMP_temperature;BMP_pressure;BME280_temperature;BME280_humidity;BME280_pressure;Samples;Min_cycle;Max_cycle;Signal;HPM_P1;HPM_P2
2023/05/02 00:00:32;;;;;;;1.00;0.88;;;12.10;60.00;;;;;;6130437;23;20095;-82
2023/05/02 00:02:59;;;;;;;1.63;1.20;;;12.10;60.00;;;;;;6180994;23;20083;-82
2023/05/02 00:05:26;;;;;;;2.22;1.40;;;12.10;60.00;;;;;;6130269;23;20067;-82
2023/05/02 00:07:52;;;;;;;1.17;1.05;;;12.10;60.10;;;;;;6106143;23;20538;-82
2023/05/02 00:10:18;;;;;;;4.25;1.45;;;12.00;60.00;;;;;;6131159;23;20330;-82
2023/05/02 00:12:44;;;;;;;1.80;1.15;;;12.00;60.10;;;;;;6179972;23;20028;-82
2023/05/02 00:15:10;;;;;;;1.52;1.20;;;12.00;60.10;;;;;;6168058;23;20029;-82
2023/05/02 00:17:38;;;;;;;1.27;1.02;;;12.00;60.20;;;;;;6180903;23;20016;-82
2023/05/02 00:20:05;;;;;;;2.85;1.30;;;12.00;60.00;;;;;;6179585;23;20013;-82
2023/05/02 00:22:31;;;;;;;2.47;1.00;;;12.00;60.10;;;;;;6181010;23;20009;-83
2023/05/02 00:24:57;;;;;;;2.20;1.20;;;12.00;60.00;;;;;;6157988;23;20457;-87
2023/05/02 00:27:23;;;;;;;2.33;1.58;;;11.90;60.00;;;;;;6174886;23;20005;-86
2023/05/02 00:29:51;;;;;;;2.10;1.13;;;11.90;60.00;;;;;;6203981;23;20040;-85
2023/05/02 00:32:17;;;;;;;2.20;1.65;;;11.90;60.00;;;;;;6134359;23;20064;-85
2023/05/02 00:34:43;;;;;;;2.13;1.63;;;11.90;59.90;;;;;;6131562;23;20013;-83
2023/05/02 00:37:09;;;;;;;1.48;1.25;;;11.90;59.90;;;;;;6182712;23;20590;-85
2023/05/02 00:39:35;;;;;;;2.15;1.50;;;11.90;60.00;;;;;;6179995;23;20021;-87
2023/05/02 00:42:01;;;;;;;3.00;1.60;;;11.90;60.00;;;;;;6180072;23;20044;-86
2023/05/02 00:44:28;;;;;;;2.65;1.23;;;11.90;60.00;;;;;;6130487;23;20020;-86
2023/05/02 00:46:55;;;;;;;4.30;1.58;;;11.80;60.00;;;;;;6154870;23;20037;-85
2023/05/02 00:49:21;;;;;;;2.47;1.10;;;11.80;59.80;;;;;;6131223;23;20464;-84
2023/05/02 00:51:47;;;;;;;2.50;1.35;;;11.80;59.90;;;;;;6179494;23;20021;-84
2023/05/02 00:54:14;;;;;;;2.78;1.23;;;11.80;60.00;;;;;;6129650;23;20025;-83
2023/05/02 00:56:41;;;;;;;1.75;1.30;;;11.80;59.90;;;;;;6179351;23;20020;-83
2023/05/02 00:59:09;;;;;;;1.88;1.13;;;11.80;60.00;;;;;;6179468;23;20016;-83
2023/05/02 01:01:52;;;;;;;2.97;1.73;;;11.80;59.90;;;;;;6155769;23;20013;-83
2023/05/02 01:04:21;;;;;;;1.83;1.25;;;11.70;59.90;;;;;;6131390;23;20504;-82
2023/05/02 01:07:01;;;;;;;1.30;1.20;;;11.70;59.90;;;;;;6179068;23;20013;-82
2023/05/02 01:09:38;;;;;;;2.08;1.30;;;11.70;59.90;;;;;;6179119;23;20421;-83
2023/05/02 01:12:37;;;;;;;2.15;1.33;;;11.70;60.00;;;;;;6178762;23;20017;-83
2023/05/02 01:15:07;;;;;;;2.00;1.50;;;11.70;60.00;;;;;;6129524;23;20029;-82
2023/05/02 01:17:34;;;;;;;1.83;1.17;;;11.60;60.00;;;;;;6105098;23;20028;-82
2023/05/02 01:20:11;;;;;;;1.38;1.20;;;11.60;60.00;;;;;;6180521;23;20040;-82
2023/05/02 01:22:41;;;;;;;4.22;1.50;;;11.60;60.00;;;;;;6154062;23;20393;-82
2023/05/02 01:25:30;;;;;;;1.02;0.98;;;11.60;59.90;;;;;;6130158;23;20456;-81
2023/05/02 01:28:16;;;;;;;1.98;1.48;;;11.60;60.00;;;;;;6154341;23;20064;-83
2023/05/02 01:30:45;;;;;;;4.20;1.40;;;11.50;60.00;;;;;;6128802;23;20021;-80
2023/05/02 01:33:15;;;;;;;2.15;1.20;;;11.60;60.00;;;;;;6153770;23;20027;-80
2023/05/02 01:35:43;;;;;;;1.23;1.13;;;11.50;60.00;;;;;;6153731;23;20096;-81
2023/05/02 01:38:14;;;;;;;1.23;1.10;;;11.50;60.10;;;;;;6153582;23;20027;-82
2023/05/02 01:40:43;;;;;;;1.35;1.20;;;11.50;60.00;;;;;;6154158;23;20009;-82
2023/05/02 01:43:14;;;;;;;1.00;1.00;;;11.50;59.90;;;;;;6130070;23;20009;-81
2023/05/02 01:45:44;;;;;;;1.50;1.40;;;11.50;60.00;;;;;;6180360;23;20025;-82
2023/05/02 01:48:11;;;;;;;2.00;1.30;;;11.50;60.00;;;;;;6179183;23;20047;-81
2023/05/02 01:50:43;;;;;;;3.03;1.88;;;11.50;60.00;;;;;;6154276;23;20024;-82
2023/05/02 01:53:12;;;;;;;1.67;1.17;;;11.50;60.10;;;;;;6129509;23;20013;-78
2023/05/02 01:55:44;;;;;;;1.55;1.13;;;11.40;60.20;;;;;;6178174;23;20017;-78
2023/05/02 01:58:14;;;;;;;3.35;1.50;;;11.40;60.10;;;;;;6179755;23;20017;-77
2023/05/02 02:00:43;;;;;;;2.83;1.33;;;11.40;60.40;;;;;;6153046;23;20021;-77
2023/05/02 02:03:11;;;;;;;1.85;1.33;;;11.40;60.80;;;;;;6152442;23;20020;-77
2023/05/02 02:05:39;;;;;;;1.73;1.30;;;11.40;61.10;;;;;;6128241;23;20376;-77
2023/05/02 02:08:05;;;;;;;2.72;1.50;;;11.40;61.20;;;;;;6152854;23;20120;-77
2023/05/02 02:10:39;;;;;;;2.80;1.50;;;11.40;61.30;;;;;;6152263;23;20571;-77
2023/05/02 02:13:24;;;;;;;4.05;1.67;;;11.40;61.20;;;;;;6128503;23;20133;-77
2023/05/02 02:15:56;;;;;;;3.05;1.35;;;11.40;61.30;;;;;;6178839;23;20029;-76
2023/05/02 02:18:25;;;;;;;3.78;2.08;;;11.40;61.10;;;;;;6128724;23;20031;-77
2023/05/02 02:20:53;;;;;;;2.58;1.50;;;11.40;61.20;;;;;;6153219;23;20067;-77
2023/05/02 02:23:24;;;;;;;4.55;1.48;;;11.40;61.30;;;;;;6179380;23;20024;-76
2023/05/02 02:25:52;;;;;;;2.72;1.60;;;11.40;61.20;;;;;;6178970;23;20086;-77
2023/05/02 02:28:18;;;;;;;2.42;1.95;;;11.40;61.10;;;;;;6128349;23;20273;-77
2023/05/02 02:30:44;;;;;;;3.03;1.95;;;11.40;61.30;;;;;;6152945;23;20024;-77
2023/05/02 02:33:10;;;;;;;3.33;1.63;;;11.40;61.30;;;;;;6178814;23;20076;-77
2023/05/02 02:35:57;;;;;;;2.72;1.33;;;11.40;61.30;;;;;;6179054;23;20021;-77
2023/05/02 02:38:36;;;;;;;2.90;1.92;;;11.40;61.50;;;;;;6177512;23;20028;-78
2023/05/02 02:41:08;;;;;;;4.00;1.70;;;11.50;61.70;;;;;;6178668;23;20024;-77
2023/05/02 02:44:00;;;;;;;2.75;1.70;;;11.50;61.60;;;;;;6178601;23;20017;-77
2023/05/02 02:46:47;;;;;;;2.63;1.67;;;11.50;61.30;;;;;;6179379;23;20017;-77
2023/05/02 02:49:38;;;;;;;2.30;1.90;;;11.50;61.10;;;;;;6152493;23;20021;-77
2023/05/02 02:52:16;;;;;;;2.72;1.75;;;11.50;61.00;;;;;;6152497;23;20024;-77
2023/05/02 02:55:28;;;;;;;3.40;1.75;;;11.50;60.90;;;;;;6127996;23;20021;-77
2023/05/02 02:58:03;;;;;;;3.55;1.95;;;11.50;61.00;;;;;;6166707;23;20025;-77
2023/05/02 03:00:31;;;;;;;6.45;2.13;;;11.50;60.90;;;;;;6152260;23;20111;-77
2023/05/02 03:02:57;;;;;;;3.38;2.15;;;11.50;60.90;;;;;;6152194;23;20025;-77
2023/05/02 03:05:24;;;;;;;1.92;1.70;;;11.50;60.80;;;;;;6178719;23;20032;-77
2023/05/02 03:07:51;;;;;;;2.78;2.00;;;11.50;60.80;;;;;;6124785;23;20021;-77
2023/05/02 03:10:17;;;;;;;2.25;1.45;;;11.50;60.80;;;;;;6175327;23;20055;-77
2023/05/02 03:12:43;;;;;;;3.60;1.95;;;11.50;60.70;;;;;;6178630;23;20080;-78
2023/05/02 03:15:45;;;;;;;2.47;1.70;;;11.50;60.60;;;;;;6152786;23;20025;-78
2023/05/02 03:18:12;;;;;;;2.95;1.70;;;11.50;60.60;;;;;;6114644;23;20021;-78
2023/05/02 03:20:38;;;;;;;3.42;1.90;;;11.50;60.50;;;;;;6154454;23;20024;-78
2023/05/02 03:23:04;;;;;;;1.60;1.50;;;11.50;60.40;;;;;;6154101;23;20009;-78
2023/05/02 03:25:31;;;;;;;4.90;2.03;;;11.50;60.40;;;;;;6154140;23;20063;-78
2023/05/02 03:27:57;;;;;;;2.55;1.80;;;11.60;60.40;;;;;;6155163;23;20009;-79
2023/05/02 03:30:24;;;;;;;2.60;1.55;;;11.60;60.30;;;;;;6130135;23;20027;-80
2023/05/02 03:32:50;;;;;;;2.60;1.70;;;11.60;60.20;;;;;;6130166;23;20017;-80
2023/05/02 03:35:17;;;;;;;2.05;1.40;;;11.60;60.20;;;;;;6153615;23;20020;-79
2023/05/02 03:37:45;;;;;;;3.00;1.90;;;11.60;60.20;;;;;;6130161;23;20009;-80
2023/05/02 03:40:11;;;;;;;4.03;1.90;;;11.60;60.40;;;;;;6181009;23;20096;-79
2023/05/02 03:42:40;;;;;;;2.38;1.73;;;11.60;60.50;;;;;;6154707;23;20041;-80
2023/05/02 03:45:10;;;;;;;2.63;1.80;;;11.70;60.70;;;;;;6148343;23;20342;-80
2023/05/02 03:47:36;;;;;;;4.03;2.13;;;11.70;60.70;;;;;;6153872;23;20021;-81
2023/05/02 03:50:02;;;;;;;3.80;2.20;;;11.70;61.40;;;;;;6154293;23;20013;-79
2023/05/02 03:52:30;;;;;;;6.00;1.98;;;11.80;60.90;;;;;;6153508;23;20013;-79
2023/05/02 03:54:56;;;;;;;2.20;1.73;;;11.80;60.90;;;;;;6154125;23;20009;-78
2023/05/02 03:57:23;;;;;;;2.65;2.13;;;11.80;60.80;;;;;;6154368;23;20103;-80
2023/05/02 03:59:49;;;;;;;6.05;1.80;;;11.90;60.70;;;;;;6154612;23;20021;-81
2023/05/02 04:02:24;;;;;;;4.32;1.92;;;11.80;60.50;;;;;;6130033;23;20033;-80
2023/05/02 04:04:50;;;;;;;2.05;1.75;;;11.90;60.40;;;;;;6130099;23;20021;-81
2023/05/02 04:07:19;;;;;;;4.82;2.83;;;12.00;60.30;;;;;;6107032;23;20009;-82
2023/05/02 04:09:52;;;;;;;5.28;1.83;;;12.20;60.10;;;;;;6155331;23;20040;-81
2023/05/02 04:12:19;;;;;;;4.15;1.80;;;12.40;60.00;;;;;;6155707;23;20483;-81
2023/05/02 04:14:48;;;;;;;1.90;1.75;;;12.70;59.50;;;;;;6154645;23;20025;-82
2023/05/02 04:17:15;;;;;;;2.03;1.50;;;13.00;59.00;;;;;;6155758;23;20067;-87
2023/05/02 04:19:48;;;;;;;3.03;1.65;;;13.40;58.30;;;;;;6132285;23;20008;-86
2023/05/02 04:22:16;;;;;;;1.70;1.30;;;13.70;57.60;;;;;;6132551;23;20016;-85
2023/05/02 04:24:46;;;;;;;2.30;1.27;;;14.00;57.70;;;;;;6132009;23;20020;-90
2023/05/02 04:27:13;;;;;;;2.88;1.38;;;14.30;56.30;;;;;;6158307;23;20021;-93
2023/05/02 04:29:39;;;;;;;1.92;1.30;;;14.60;55.90;;;;;;6159136;23;20029;-92
2023/05/02 04:32:07;;;;;;;1.88;1.20;;;14.80;55.30;;;;;;6109449;23;20475;-87
2023/05/02 04:34:33;;;;;;;1.58;1.45;;;15.10;54.80;;;;;;6154353;23;20107;-78
2023/05/02 04:37:00;;;;;;;3.22;1.58;;;15.30;54.30;;;;;;6155524;23;20043;-75
2023/05/02 04:39:26;;;;;;;2.65;1.10;;;15.50;52.80;;;;;;6154501;23;20132;-79
2023/05/02 04:42:06;;;;;;;5.72;1.50;;;15.90;54.60;;;;;;6132697;23;20025;-79
2023/05/02 04:44:38;;;;;;;4.20;1.20;;;16.10;55.50;;;;;;6155426;23;20654;-80
2023/05/02 04:47:04;;;;;;;2.22;1.23;;;16.40;54.70;;;;;;6130566;23;20021;-78
2023/05/02 04:49:31;;;;;;;3.33;1.55;;;16.70;54.10;;;;;;6155225;23;20021;-79
2023/05/02 04:51:57;;;;;;;1.83;1.13;;;16.90;53.60;;;;;;6154166;23;20004;-76
2023/05/02 04:54:23;;;;;;;2.53;1.25;;;17.10;52.90;;;;;;6152310;23;20025;-75
2023/05/02 04:56:49;;;;;;;2.63;1.10;;;17.30;52.50;;;;;;6152642;23;20116;-76
2023/05/02 04:59:16;;;;;;;2.20;1.20;;;17.50;52.10;;;;;;6178196;23;20075;-75
2023/05/02 05:01:44;;;;;;;1.60;1.00;;;17.60;51.70;;;;;;6153351;23;20471;-74
2023/05/02 05:04:10;;;;;;;3.03;1.08;;;17.80;51.50;;;;;;6153996;23;20005;-76
2023/05/02 05:06:36;;;;;;;1.10;0.95;;;17.90;51.10;;;;;;6128984;23;20078;-75
2023/05/02 05:09:03;;;;;;;2.38;1.10;;;18.10;50.80;;;;;;6151929;23;20500;-75
2023/05/02 05:11:29;;;;;;;1.23;0.90;;;18.20;50.50;;;;;;6151526;23;20026;-75
2023/05/02 05:13:57;;;;;;;1.30;0.90;;;18.40;50.30;;;;;;6151548;23;20540;-75
2023/05/02 05:16:24;;;;;;;0.73;0.70;;;18.60;50.10;;;;;;6127280;23;20243;-75
2023/05/02 05:18:52;;;;;;;1.80;0.85;;;18.70;49.90;;;;;;6151227;23;20112;-75
2023/05/02 05:21:19;;;;;;;0.90;0.88;;;18.90;49.70;;;;;;6151469;23;20025;-75
2023/05/02 05:23:46;;;;;;;1.27;0.85;;;19.00;49.50;;;;;;6127623;23;20562;-75
2023/05/02 05:26:17;;;;;;;1.20;0.90;;;19.20;49.20;;;;;;6152497;23;20024;-75
2023/05/02 05:28:46;;;;;;;2.20;0.63;;;19.30;49.00;;;;;;6152849;23;20020;-75
2023/05/02 05:31:16;;;;;;;1.02;0.70;;;19.50;48.90;;;;;;6179575;23;20474;-75
2023/05/02 05:33:45;;;;;;;2.13;0.70;;;19.70;48.80;;;;;;6128945;23;20376;-75
2023/05/02 05:36:16;;;;;;;0.98;0.65;;;19.80;48.60;;;;;;6179069;23;20093;-75
2023/05/02 05:38:42;;;;;;;2.20;0.77;;;20.00;48.40;;;;;;6152372;23;20021;-75
2023/05/02 05:41:12;;;;;;;1.15;0.68;;;20.10;48.20;;;;;;6152681;23;20021;-75
2023/05/02 05:43:43;;;;;;;0.60;0.52;;;20.30;48.00;;;;;;6152689;23;20484;-75
2023/05/02 05:46:09;;;;;;;1.85;0.60;;;20.40;47.90;;;;;;6128006;23;20013;-75
2023/05/02 05:48:37;;;;;;;0.60;0.60;;;20.50;47.70;;;;;;6152510;23;20017;-75
2023/05/02 05:51:04;;;;;;;0.80;0.45;;;20.70;47.60;;;;;;6152824;23;20109;-75
2023/05/02 05:53:32;;;;;;;0.75;0.63;;;20.80;47.60;;;;;;6152510;23;20024;-75
2023/05/02 05:56:11;;;;;;;0.60;0.50;;;21.00;47.40;;;;;;6152483;23;20278;-75
2023/05/02 05:58:39;;;;;;;0.60;0.60;;;21.10;47.40;;;;;;6152527;23;20099;-75
2023/05/02 06:01:07;;;;;;;1.55;0.82;;;21.30;47.10;;;;;;6104154;23;20009;-75
2023/05/02 06:03:34;;;;;;;1.33;0.30;;;21.40;46.90;;;;;;6127622;23;20028;-75
2023/05/02 06:06:00;;;;;;;1.13;0.40;;;21.50;46.70;;;;;;6127947;23;20029;-75
2023/05/02 06:08:26;;;;;;;1.23;0.60;;;21.70;46.50;;;;;;6179209;23;20040;-75
2023/05/02 06:10:52;;;;;;;0.80;0.30;;;21.80;46.30;;;;;;6152563;23;20016;-75
2023/05/02 06:13:18;;;;;;;0.75;0.75;;;22.00;46.20;;;;;;6153114;23;20103;-75
2023/05/02 06:15:44;;;;;;;7.07;3.75;;;22.10;45.90;;;;;;6165730;23;20100;-75
2023/05/02 06:18:10;;;;;;;5.88;4.72;;;22.30;45.80;;;;;;6152576;23;20028;-75
2023/05/02 06:20:36;;;;;;;5.68;4.70;;;22.50;45.70;;;;;;6178520;23;20100;-75
2023/05/02 06:23:02;;;;;;;5.45;4.00;;;22.60;45.50;;;;;;6151996;23;20017;-75
2023/05/02 06:25:28;;;;;;;5.28;3.33;;;22.70;45.40;;;;;;6152238;23;20017;-74
2023/05/02 06:27:54;;;;;;;3.25;2.90;;;22.90;45.30;;;;;;6179472;23;20013;-75
2023/05/02 06:30:20;;;;;;;2.60;2.30;;;22.90;45.20;;;;;;6178439;23;20376;-75
2023/05/02 06:32:46;;;;;;;3.20;2.30;;;23.00;45.10;;;;;;6178805;23;20400;-75
2023/05/02 06:35:12;;;;;;;2.75;2.10;;;23.00;45.10;;;;;;6178747;23;20079;-76
2023/05/02 06:37:38;;;;;;;1.92;1.73;;;23.10;45.00;;;;;;6151995;23;20071;-75
2023/05/02 06:40:04;;;;;;;2.33;1.60;;;23.20;45.00;;;;;;6152891;23;20567;-75
2023/05/02 06:42:30;;;;;;;2.35;1.58;;;23.30;45.00;;;;;;6178951;23;20017;-82
2023/05/02 06:44:56;;;;;;;2.33;0.98;;;23.40;45.00;;;;;;6152415;23;20020;-74
2023/05/02 06:47:23;;;;;;;2.35;1.20;;;23.40;42.10;;;;;;6178325;23;20021;-75
2023/05/02 06:49:52;;;;;;;1.55;0.95;;;23.50;41.30;;;;;;6153273;23;20380;-75
2023/05/02 06:52:18;;;;;;;2.08;1.02;;;23.60;40.00;;;;;;6182097;23;20040;-75
2023/05/02 06:54:44;;;;;;;1.70;0.68;;;23.80;40.50;;;;;;6181359;23;20554;-75
2023/05/02 06:57:10;;;;;;;2.35;0.85;;;23.90;40.10;;;;;;6180846;23;20021;-75
2023/05/02 06:59:36;;;;;;;2.65;0.93;;;24.00;38.90;;;;;;6181674;23;20068;-76
2023/05/02 07:02:02;;;;;;;1.00;0.75;;;24.00;38.10;;;;;;6181536;23;20021;-76
2023/05/02 07:04:28;;;;;;;1.60;0.60;;;24.20;39.00;;;;;;6181844;23;20013;-75
2023/05/02 07:06:54;;;;;;;1.15;0.93;;;24.20;37.30;;;;;;6155676;23;20732;-74
2023/05/02 07:09:20;;;;;;;1.75;0.70;;;24.20;38.20;;;;;;6155354;23;20021;-76
2023/05/02 07:11:46;;;;;;;1.77;0.70;;;24.30;37.90;;;;;;6181283;23;20017;-74
2023/05/02 07:14:12;;;;;;;1.58;0.75;;;24.30;37.50;;;;;;6180810;23;20216;-73
2023/05/02 07:16:38;;;;;;;1.35;1.00;;;24.40;36.70;;;;;;6181638;23;20013;-73
2023/05/02 07:19:05;;;;;;;1.70;0.70;;;24.40;36.60;;;;;;6155987;23;20017;-73
2023/05/02 07:21:31;;;;;;;2.13;0.70;;;24.40;36.60;;;;;;6181654;23;20392;-72
2023/05/02 07:23:57;;;;;;;1.48;0.63;;;24.50;36.80;;;;;;6180952;23;20562;-73
2023/05/02 07:26:25;;;;;;;1.00;0.70;;;24.50;36.60;;;;;;6154904;23;20099;-73
2023/05/02 07:28:51;;;;;;;0.57;0.50;;;24.60;35.30;;;;;;6181319;23;20021;-72
2023/05/02 07:31:17;;;;;;;1.58;0.45;;;24.60;35.10;;;;;;6182041;23;20087;-73
2023/05/02 07:33:42;;;;;;;2.22;0.75;;;24.60;35.30;;;;;;6181256;23;20555;-73
2023/05/02 07:36:08;;;;;;;2.00;0.60;;;24.60;35.40;;;;;;6181473;23;20151;-73
2023/05/02 07:38:34;;;;;;;0.85;0.60;;;24.50;35.70;;;;;;6181359;23;20547;-74
2023/05/02 07:41:00;;;;;;;1.85;0.90;;;24.50;35.90;;;;;;6181430;23;20028;-73
2023/05/02 07:43:26;;;;;;;2.50;0.75;;;24.40;35.40;;;;;;6181803;23;20013;-83
2023/05/02 07:45:52;;;;;;;2.47;0.60;;;24.30;35.20;;;;;;6179357;23;20673;-83
2023/05/02 07:48:19;;;;;;;1.27;0.63;;;24.20;34.80;;;;;;6154881;23;20400;-81
2023/05/02 07:50:45;;;;;;;1.35;0.70;;;24.10;34.20;;;;;;6154771;23;20016;-81
2023/05/02 07:53:11;;;;;;;2.22;0.50;;;24.00;34.70;;;;;;6181262;23;20013;-80
2023/05/02 07:55:37;;;;;;;0.73;0.63;;;23.90;34.40;;;;;;6154538;23;20020;-81
2023/05/02 07:58:03;;;;;;;3.22;1.10;;;23.80;34.80;;;;;;6155693;23;20063;-81
2023/05/02 08:00:29;;;;;;;1.10;0.65;;;23.60;33.50;;;;;;6181111;23;20029;-81
2023/05/02 08:02:55;;;;;;;0.77;0.70;;;23.40;32.70;;;;;;6178757;23;20032;-80
2023/05/02 08:05:22;;;;;;;1.67;0.90;;;23.20;33.40;;;;;;6179645;23;20020;-82
2023/05/02 08:07:48;;;;;;;1.90;0.80;;;23.10;33.90;;;;;;6153285;23;20016;-81
2023/05/02 08:10:13;;;;;;;2.97;0.80;;;23.10;34.60;;;;;;6179695;23;20013;-80
2023/05/02 08:12:41;;;;;;;2.28;0.63;;;23.00;34.40;;;;;;6177770;23;20307;-79
2023/05/02 08:15:09;;;;;;;3.45;0.93;;;22.90;33.70;;;;;;6179388;23;20510;-80
2023/05/02 08:17:35;;;;;;;0.98;0.60;;;22.80;33.90;;;;;;6178795;23;20040;-79
2023/05/02 08:20:01;;;;;;;3.08;0.60;;;22.70;34.00;;;;;;6179162;23;20487;-81
2023/05/02 08:22:27;;;;;;;1.50;0.60;;;22.60;33.70;;;;;;6179948;23;20013;-82
2023/05/02 08:24:53;;;;;;;3.28;0.80;;;22.50;34.20;;;;;;6178790;23;20083;-77
2023/05/02 08:27:19;;;;;;;1.25;0.75;;;22.40;34.50;;;;;;6178894;23;20024;-81
2023/05/02 08:29:44;;;;;;;1.30;0.93;;;22.30;34.10;;;;;;6179262;23;20021;-79
2023/05/02 08:32:11;;;;;;;3.25;0.90;;;22.20;34.30;;;;;;6152332;23;20027;-81
2023/05/02 08:34:36;;;;;;;4.15;0.70;;;22.10;34.80;;;;;;6178887;23;20013;-84
2023/05/02 08:37:08;;;;;;;2.80;0.98;;;22.10;34.20;;;;;;6180261;23;20016;-81
2023/05/02 08:39:34;;;;;;;1.75;1.10;;;21.90;34.90;;;;;;6179276;23;20083;-80
2023/05/02 08:42:00;;;;;;;4.35;1.05;;;21.50;34.40;;;;;;6153238;23;20544;-80
2023/05/02 08:44:26;;;;;;;13.20;10.32;;;21.40;33.70;;;;;;6104291;23;20021;-81
2023/05/02 08:46:54;;;;;;;6.68;4.97;;;21.20;33.90;;;;;;6177576;23;20013;-78
2023/05/02 08:49:21;;;;;;;4.25;3.40;;;21.00;33.90;;;;;;6180553;23;20016;-81
2023/05/02 08:51:50;;;;;;;2.90;1.70;;;20.90;33.80;;;;;;6180109;23;20021;-82
2023/05/02 08:54:17;;;;;;;3.38;1.73;;;20.70;33.40;;;;;;6153419;23;20044;-83
2023/05/02 08:56:45;;;;;;;1.73;1.30;;;20.60;33.70;;;;;;6179602;23;20027;-82
2023/05/02 08:59:11;;;;;;;2.67;1.15;;;20.30;35.10;;;;;;6179795;23;20013;-80
2023/05/02 09:01:40;;;;;;;2.10;0.88;;;20.20;35.20;;;;;;6179924;23;20063;-81
2023/05/02 09:04:06;;;;;;;3.30;1.30;;;20.10;34.30;;;;;;6180284;23;20016;-85
2023/05/02 09:06:33;;;;;;;4.13;1.20;;;20.00;34.80;;;;;;6176873;23;20051;-82
2023/05/02 09:09:00;;;;;;;1.73;1.10;;;19.90;35.10;;;;;;6149929;23;20027;-84
2023/05/02 09:11:26;;;;;;;3.55;1.10;;;19.80;35.30;;;;;;6178185;23;20024;-84
2023/05/02 09:13:52;;;;;;;1.40;1.00;;;19.70;35.80;;;;;;6177432;23;20116;-80
2023/05/02 09:16:24;;;;;;;2.50;1.25;;;19.60;35.80;;;;;;6177639;23;20107;-81
2023/05/02 09:18:58;;;;;;;3.33;1.50;;;19.60;35.80;;;;;;6177642;23;20147;-83
2023/05/02 09:21:33;;;;;;;1.98;1.30;;;19.50;35.90;;;;;;6151237;23;20021;-84
2023/05/02 09:23:59;;;;;;;;;;;19.40;36.70;;;;;;6127139;23;20021;-82
2023/05/02 09:26:32;;;;;;;3.05;1.20;;;19.30;35.60;;;;;;6176958;23;19927;-83
2023/05/02 09:29:00;;;;;;;3.30;1.10;;;19.20;35.90;;;;;;6152012;23;20032;-83
2023/05/02 09:31:34;;;;;;;3.42;1.13;;;19.10;36.60;;;;;;6126135;23;20013;-85
2023/05/02 09:34:18;;;;;;;4.22;1.50;;;19.00;36.60;;;;;;6176582;23;20024;-80
2023/05/02 09:36:45;;;;;;;1.27;1.17;;;18.80;35.30;;;;;;6176343;23;20031;-80
2023/05/02 09:39:17;;;;;;;3.50;1.55;;;18.80;36.50;;;;;;6150344;23;20249;-78
2023/05/02 09:41:45;;;;;;;1.80;1.05;;;18.70;36.70;;;;;;6177109;23;20024;-80
2023/05/02 09:44:13;;;;;;;7.22;1.20;;;18.60;37.10;;;;;;6176061;23;20092;-79
2023/05/02 09:46:47;;;;;;;3.10;0.82;;;18.60;37.10;;;;;;6150589;23;20059;-79
2023/05/02 09:49:17;;;;;;;1.10;1.00;;;18.50;36.00;;;;;;6126086;23;20123;-80
2023/05/02 09:51:44;;;;;;;1.08;0.80;;;18.50;35.90;;;;;;6101262;23;20376;-79
2023/05/02 09:54:10;;;;;;;3.25;0.75;;;18.50;37.00;;;;;;6150083;23;20027;-80
2023/05/02 09:56:56;;;;;;;2.35;1.00;;;18.40;36.60;;;;;;6126064;23;20031;-80
2023/05/02 09:59:22;;;;;;;;;;;18.30;38.00;;;;;;6151508;23;20025;-80
2023/05/02 10:01:56;;;;;;;3.70;1.00;;;18.30;37.50;;;;;;6176699;23;19916;-81
2023/05/02 10:04:22;;;;;;;2.47;0.80;;;18.30;37.90;;;;;;6151625;23;20017;-81
2023/05/02 10:06:53;;;;;;;1.90;0.90;;;18.30;37.00;;;;;;6150729;23;20075;-80
2023/05/02 10:09:20;;;;;;;1.65;1.00;;;18.20;36.40;;;;;;6176979;23;20021;-81
2023/05/02 10:11:49;;;;;;;1.92;1.02;;;18.10;35.20;;;;;;6177137;23;20424;-81
2023/05/02 10:14:18;;;;;;;2.33;1.00;;;18.00;35.20;;;;;;6176513;23;20342;-81
2023/05/02 10:17:12;;;;;;;1.65;1.00;;;17.90;35.10;;;;;;6176944;23;20013;-82
2023/05/02 10:19:48;;;;;;;1.15;0.90;;;17.90;35.70;;;;;;6177118;23;20029;-82
2023/05/02 10:22:18;;;;;;;6.45;3.92;;;17.90;36.20;;;;;;6177161;23;20051;-83
2023/05/02 10:24:48;;;;;;;2.90;1.88;;;17.80;36.50;;;;;;6149467;23;20029;-79
2023/05/02 10:27:15;;;;;;;1.90;1.38;;;17.70;36.40;;;;;;6178328;23;20025;-80
2023/05/02 10:29:42;;;;;;;2.42;1.10;;;17.60;36.40;;;;;;6178401;23;20017;-82
2023/05/02 10:32:08;;;;;;;3.45;1.20;;;17.70;36.90;;;;;;6127831;23;20036;-82
2023/05/02 10:34:35;;;;;;;1.50;1.10;;;17.70;37.30;;;;;;6177987;23;20448;-85
2023/05/02 10:37:01;;;;;;;1.70;1.00;;;17.60;37.70;;;;;;6179540;23;20016;-81
2023/05/02 10:39:28;;;;;;;3.40;1.50;;;17.60;37.40;;;;;;6152732;23;20350;-81
2023/05/02 10:41:56;;;;;;;1.52;1.10;;;17.60;37.20;;;;;;6179132;23;20432;-81
2023/05/02 10:44:39;;;;;;;1.80;1.20;;;17.60;37.10;;;;;;6179417;23;20040;-81
2023/05/02 10:47:25;;;;;;;1.33;1.23;;;17.60;36.90;;;;;;6153641;23;20017;-81
2023/05/02 10:49:56;;;;;;;1.08;0.80;;;17.60;36.90;;;;;;6181632;23;20039;-82
2023/05/02 10:52:37;;;;;;;1.88;0.90;;;17.50;35.80;;;;;;6179181;23;20021;-83
2023/05/02 10:55:22;;;;;;;1.58;0.82;;;17.40;35.20;;;;;;6179322;23;20048;-81
2023/05/02 10:57:57;;;;;;;1.05;0.90;;;17.30;35.50;;;;;;6178746;23;20021;-81
2023/05/02 11:00:32;;;;;;;1.77;1.02;;;17.30;35.60;;;;;;6178943;23;20032;-81
2023/05/02 11:02:59;;;;;;;1.42;0.80;;;17.30;36.40;;;;;;6178629;23;20032;-80
2023/05/02 11:05:26;;;;;;;1.42;0.80;;;17.30;36.90;;;;;;6178924;23;20376;-84
2023/05/02 11:08:15;;;;;;;2.42;1.13;;;17.30;36.50;;;;;;6179026;23;20023;-80
2023/05/02 11:10:41;;;;;;;2.28;0.93;;;17.30;37.40;;;;;;6164963;23;20455;-81
2023/05/02 11:13:07;;;;;;;1.42;1.00;;;17.40;38.60;;;;;;6152496;23;20013;-85
2023/05/02 11:15:40;;;;;;;4.20;1.10;;;17.50;38.30;;;;;;6150748;23;20510;-85
2023/05/02 11:18:11;;;;;;;4.40;1.40;;;17.60;38.20;;;;;;6178535;23;20017;-80
2023/05/02 11:20:42;;;;;;;2.67;1.00;;;17.60;37.70;;;;;;6177084;23;20013;-79
2023/05/02 11:23:14;;;;;;;2.63;0.88;;;17.60;37.60;;;;;;6150826;23;20036;-80
2023/05/02 11:25:42;;;;;;;1.67;0.90;;;17.60;37.10;;;;;;6125867;23;20012;-79
2023/05/02 11:28:38;;;;;;;3.22;0.90;;;17.70;36.80;;;;;;6127028;23;20015;-80
2023/05/02 11:31:07;;;;;;;3.33;0.97;;;17.70;36.60;;;;;;6150112;23;20028;-81
2023/05/02 11:33:33;;;;;;;1.70;0.85;;;17.70;36.30;;;;;;6151150;23;20405;-81
2023/05/02 11:36:00;;;;;;;1.67;0.93;;;17.70;36.70;;;;;;6177836;23;20017;-82
2023/05/02 11:38:34;;;;;;;2.95;1.17;;;17.70;36.90;;;;;;6154041;23;20021;-80
2023/05/02 11:41:01;;;;;;;1.45;0.98;;;17.70;37.30;;;;;;6154254;23;20400;-80
2023/05/02 11:43:28;;;;;;;1.27;0.90;;;17.70;37.30;;;;;;6130564;23;20451;-81
2023/05/02 11:45:56;;;;;;;4.18;0.70;;;17.70;36.90;;;;;;6178492;23;20111;-80
2023/05/02 11:48:26;;;;;;;2.60;1.08;;;17.70;37.40;;;;;;6129438;23;20535;-81
2023/05/02 11:50:56;;;;;;;2.30;1.08;;;17.80;37.80;;;;;;6128913;23;20021;-77
2023/05/02 11:53:28;;;;;;;3.80;1.35;;;17.80;37.50;;;;;;6153599;23;20079;-80
2023/05/02 11:56:04;;;;;;;1.17;1.00;;;17.80;37.30;;;;;;6153435;23;20530;-80
2023/05/02 11:58:32;;;;;;;2.63;1.00;;;17.90;37.00;;;;;;6154021;23;20015;-78
2023/05/02 12:01:10;;;;;;;5.78;1.17;;;17.80;36.50;;;;;;6130065;23;20005;-80
2023/05/02 12:03:36;;;;;;;2.85;1.00;;;17.80;36.90;;;;;;6181226;23;20013;-78
2023/05/02 12:06:17;;;;;;;3.58;1.35;;;17.80;37.10;;;;;;6179158;23;20029;-80
2023/05/02 12:08:44;;;;;;;2.35;1.30;;;17.80;36.40;;;;;;6106640;23;20025;-81
2023/05/02 12:11:14;;;;;;;1.10;1.00;;;17.70;35.90;;;;;;6128731;23;20017;-79
2023/05/02 12:13:48;;;;;;;1.23;1.05;;;17.70;35.80;;;;;;6104545;23;20358;-80
2023/05/02 12:16:15;;;;;;;2.88;1.08;;;17.60;35.80;;;;;;6148809;23;20016;-80
2023/05/02 12:18:42;;;;;;;3.65;1.10;;;17.70;36.40;;;;;;6158197;23;20020;-80
2023/05/02 12:21:08;;;;;;;2.67;1.30;;;17.70;36.50;;;;;;6183616;23;20435;-81
2023/05/02 12:23:34;;;;;;;4.40;1.30;;;17.70;36.30;;;;;;6209418;23;20451;-80
2023/05/02 12:26:28;;;;;;;2.78;1.20;;;17.70;36.50;;;;;;6209341;23;20511;-80
2023/05/02 12:28:54;;;;;;;2.10;1.02;;;17.70;36.50;;;;;;6182916;23;20027;-79
2023/05/02 12:31:21;;;;;;;1.50;0.80;;;17.70;37.00;;;;;;6209876;23;20016;-80
2023/05/02 12:33:49;;;;;;;1.48;0.90;;;17.80;37.20;;;;;;6209730;23;20103;-78
2023/05/02 12:36:15;;;;;;;3.05;1.00;;;17.80;36.90;;;;;;6183034;23;20029;-80
2023/05/02 12:38:55;;;;;;;2.28;1.23;;;17.80;36.50;;;;;;6209842;23;20479;-80
2023/05/02 12:41:35;;;;;;;2.25;1.00;;;17.70;36.40;;;;;;6183246;23;20053;-79
2023/05/02 12:44:02;;;;;;;3.97;1.00;;;17.70;37.10;;;;;;6209536;23;20013;-79
2023/05/02 12:46:30;;;;;;;2.75;1.00;;;17.70;36.70;;;;;;6182719;23;20012;-75
2023/05/02 12:49:22;;;;;;;1.20;0.98;;;17.70;36.80;;;;;;6209642;23;20012;-79
2023/05/02 12:51:55;;;;;;;1.45;1.05;;;17.70;37.40;;;;;;6204015;23;20020;-76
2023/05/02 12:54:21;;;;;;;1.95;1.00;;;17.70;37.70;;;;;;6209177;23;20017;-78
2023/05/02 12:56:47;;;;;;;1.60;0.98;;;17.70;37.10;;;;;;6209164;23;20459;-79
2023/05/02 12:59:31;;;;;;;1.35;0.90;;;17.80;36.60;;;;;;6183175;23;20349;-80